Time;durP1;ratioP1;P1;durP2;ratioP2;P2;SDS_P1;SDS_P2;PMS_P1;PMS_P2;Temp;Humidity;BMP_temperature;BMP_pressure;BME280_temperature;BME280_humidity;BME280_pressure;Samples;Min_cycle;Max_cycle;Signal;HPM_P1;HPM_P2
2021/06/27 00:00:42;;;;;;;4.40;4.10;;;25.80;77.10;;;;;;6157760;23;20414;-95
2021/06/27 00:03:10;;;;;;;4.67;4.37;;;25.90;77.20;;;;;;6157927;23;20412;-91
2021/06/27 00:05:38;;;;;;;5.17;4.77;;;25.80;77.10;;;;;;6157612;23;20502;-94
2021/06/27 00:08:06;;;;;;;3.90;3.70;;;25.90;77.20;;;;;;6157795;23;20415;-95
2021/06/27 00:10:37;;;;;;;4.63;4.33;;;25.80;77.10;;;;;;6157351;23;20447;-93
2021/06/27 00:13:05;;;;;;;4.77;4.47;;;25.80;77.20;;;;;;6157913;23;20418;-95
2021/06/27 00:15:35;;;;;;;5.03;4.70;;;25.80;77.20;;;;;;6157876;23;20411;-95
2021/06/27 00:18:03;;;;;;;4.03;3.83;;;25.80;77.20;;;;;;6157429;23;20487;-96
2021/06/27 00:20:32;;;;;;;5.00;4.60;;;25.80;77.20;;;;;;6157756;23;20485;-94
2021/06/27 00:22:59;;;;;;;4.50;4.20;;;25.80;77.20;;;;;;6157704;23;20414;-94
2021/06/27 00:25:29;;;;;;;4.60;4.30;;;25.80;77.20;;;;;;6157880;23;20502;-94
2021/06/27 00:27:57;;;;;;;4.87;4.47;;;25.80;77.20;;;;;;6157388;23;20495;-93
2021/06/27 00:30:26;;;;;;;5.13;4.73;;;25.80;77.20;;;;;;6157523;23;20453;-94
2021/06/27 00:32:54;;;;;;;4.60;4.30;;;25.80;77.20;;;;;;6157760;23;20492;-93
2021/06/27 00:35:22;;;;;;;4.00;3.77;;;25.80;77.10;;;;;;6164868;23;20426;-90
2021/06/27 00:37:49;;;;;;;4.63;4.30;;;25.80;77.10;;;;;;6183559;23;20407;-90
2021/06/27 00:40:18;;;;;;;3.97;3.77;;;25.90;77.20;;;;;;6184135;23;20402;-91
2021/06/27 00:42:45;;;;;;;4.27;3.97;;;25.80;77.10;;;;;;6180328;23;21073;-95
2021/06/27 00:45:14;;;;;;;5.00;4.70;;;25.80;77.10;;;;;;6161716;23;20412;-95
2021/06/27 00:47:42;;;;;;;4.77;4.47;;;25.80;77.10;;;;;;6160078;23;20483;-95
2021/06/27 00:50:14;;;;;;;4.57;4.17;;;25.80;77.00;;;;;;6157941;23;20442;-95
2021/06/27 00:52:41;;;;;;;4.70;4.40;;;25.80;77.00;;;;;;6157556;23;20417;-94
2021/06/27 00:55:10;;;;;;;4.20;4.00;;;25.80;77.00;;;;;;6157579;23;20922;-95
2021/06/27 00:57:37;;;;;;;4.13;3.83;;;25.80;77.00;;;;;;6157508;23;20493;-95
2021/06/27 01:00:07;;;;;;;4.47;4.17;;;25.80;77.00;;;;;;6157213;23;20453;-95
2021/06/27 01:02:34;;;;;;;5.03;4.67;;;25.80;77.00;;;;;;6157457;23;20501;-95
2021/06/27 01:05:02;;;;;;;4.87;4.57;;;25.80;77.00;;;;;;6157579;23;21019;-95
2021/06/27 01:07:31;;;;;;;4.20;3.90;;;25.80;76.90;;;;;;6157638;23;20404;-94
2021/06/27 01:09:57;;;;;;;4.30;4.10;;;25.80;76.90;;;;;;6158404;23;20537;-95
2021/06/27 01:12:24;;;;;;;4.00;3.80;;;25.80;76.90;;;;;;6159166;23;20494;-93
2021/06/27 01:14:51;;;;;;;4.50;4.20;;;25.80;76.90;;;;;;6159345;23;20414;-95
2021/06/27 01:17:18;;;;;;;4.47;4.17;;;25.80;76.80;;;;;;6159395;23;20434;-94
2021/06/27 01:19:45;;;;;;;3.73;3.53;;;25.90;76.90;;;;;;6158591;23;20701;-94
2021/06/27 01:22:13;;;;;;;4.00;3.80;;;25.80;76.80;;;;;;6158771;23;20502;-94
2021/06/27 01:24:40;;;;;;;4.73;4.43;;;25.80;76.70;;;;;;6159071;23;20913;-95
2021/06/27 01:27:07;;;;;;;4.17;3.97;;;25.80;76.70;;;;;;6161224;23;20413;-92
2021/06/27 01:29:34;;;;;;;4.20;4.00;;;25.80;76.70;;;;;;6159048;23;20435;-93
2021/06/27 01:32:01;;;;;;;4.40;4.10;;;25.90;76.70;;;;;;6159385;23;20407;-95
2021/06/27 01:34:28;;;;;;;4.63;4.33;;;25.80;76.70;;;;;;6159125;23;20490;-95
2021/06/27 01:36:54;;;;;;;3.53;3.33;;;25.80;76.60;;;;;;6158712;23;20442;-95
2021/06/27 01:39:23;;;;;;;4.60;4.30;;;25.80;76.60;;;;;;6159052;23;20422;-94
2021/06/27 01:41:50;;;;;;;4.20;3.90;;;25.80;76.60;;;;;;6158895;23;20497;-94
2021/06/27 01:44:17;;;;;;;3.87;3.67;;;25.80;77.40;;;;;;6158822;23;20496;-93
2021/06/27 01:46:44;;;;;;;3.97;3.77;;;25.80;76.60;;;;;;6160303;23;20502;-95
2021/06/27 01:49:12;;;;;;;3.93;3.63;;;25.80;76.60;;;;;;6158563;23;20960;-92
2021/06/27 01:51:40;;;;;;;4.50;4.20;;;25.80;76.60;;;;;;6158918;23;20417;-96
2021/06/27 01:54:08;;;;;;;4.07;3.80;;;25.80;76.50;;;;;;6159383;23;20435;-93
2021/06/27 01:56:36;;;;;;;4.40;4.10;;;25.80;76.60;;;;;;6158984;23;20486;-94
2021/06/27 01:59:04;;;;;;;4.47;4.17;;;25.80;76.50;;;;;;6158490;23;20419;-91
2021/06/27 02:01:32;;;;;;;4.40;4.10;;;25.80;76.50;;;;;;6159220;23;20414;-94
2021/06/27 02:03:59;;;;;;;3.97;3.67;;;25.80;76.50;;;;;;6158819;23;20452;-95
2021/06/27 02:06:28;;;;;;;4.07;3.87;;;25.80;76.50;;;;;;6158108;23;20516;-92
2021/06/27 02:08:56;;;;;;;3.33;3.13;;;25.80;76.40;;;;;;6158622;23;20408;-95
2021/06/27 02:11:24;;;;;;;4.10;3.80;;;25.80;76.40;;;;;;6158901;23;20420;-94
2021/06/27 02:13:54;;;;;;;3.80;3.60;;;25.80;76.40;;;;;;6158370;23;20411;-95
2021/06/27 02:16:21;;;;;;;4.10;3.87;;;25.80;76.40;;;;;;6158966;23;20409;-94
2021/06/27 02:18:50;;;;;;;4.53;4.23;;;25.90;76.50;;;;;;6158878;23;20519;-94
2021/06/27 02:21:20;;;;;;;3.93;3.70;;;25.80;76.40;;;;;;6158410;23;20912;-93
2021/06/27 02:23:47;;;;;;;4.10;3.80;;;25.80;76.40;;;;;;6158517;23;20514;-94
2021/06/27 02:26:14;;;;;;;3.80;3.60;;;25.80;76.40;;;;;;6158338;23;20408;-93
2021/06/27 02:28:42;;;;;;;3.90;3.70;;;25.80;76.40;;;;;;6158614;23;20738;-95
2021/06/27 02:31:10;;;;;;;4.50;4.20;;;25.80;76.40;;;;;;6158252;23;20542;-95
2021/06/27 02:33:38;;;;;;;3.50;3.30;;;25.80;77.20;;;;;;6132587;23;20412;-93
2021/06/27 02:36:06;;;;;;;4.30;4.00;;;25.80;76.30;;;;;;6158113;23;20524;-94
2021/06/27 02:38:33;;;;;;;4.03;3.73;;;25.70;76.30;;;;;;6157879;23;20993;-95
2021/06/27 02:41:00;;;;;;;4.00;3.80;;;25.80;76.30;;;;;;6157992;23;20737;-94
2021/06/27 02:43:27;;;;;;;3.60;3.40;;;25.70;76.20;;;;;;6157724;23;20444;-94
2021/06/27 02:45:54;;;;;;;3.57;3.37;;;25.80;76.30;;;;;;6133910;23;20494;-95
2021/06/27 02:48:22;;;;;;;4.03;3.40;;;25.70;76.20;;;;;;6158156;23;20442;-94
2021/06/27 02:50:49;;;;;;;3.73;3.53;;;25.70;76.30;;;;;;6158335;23;20494;-94
2021/06/27 02:53:16;;;;;;;4.00;3.80;;;25.70;76.20;;;;;;6158129;23;20491;-93
2021/06/27 02:55:43;;;;;;;3.73;3.40;;;25.70;76.20;;;;;;6158154;23;20414;-93
2021/06/27 02:58:11;;;;;;;4.10;3.90;;;25.70;76.30;;;;;;6158308;23;20479;-95
2021/06/27 03:00:38;;;;;;;3.67;3.47;;;25.70;76.20;;;;;;6157944;23;20800;-94
2021/06/27 03:03:05;;;;;;;3.27;3.07;;;25.70;76.20;;;;;;6158722;23;20410;-93
2021/06/27 03:05:34;;;;;;;3.30;3.10;;;25.70;76.20;;;;;;6158621;23;20815;-94
2021/06/27 03:08:02;;;;;;;4.00;3.73;;;25.70;76.20;;;;;;6162740;23;20457;-89
2021/06/27 03:10:28;;;;;;;3.40;3.20;;;25.70;76.20;;;;;;6176228;23;20438;-91
2021/06/27 03:12:55;;;;;;;4.00;3.77;;;25.70;76.20;;;;;;6173628;23;20408;-95
2021/06/27 03:15:22;;;;;;;3.53;3.33;;;25.70;76.20;;;;;;6158388;23;20434;-94
2021/06/27 03:17:49;;;;;;;3.47;3.20;;;25.80;76.30;;;;;;6158342;23;20926;-95
2021/06/27 03:20:17;;;;;;;3.23;3.03;;;25.70;76.20;;;;;;6157704;23;20928;-93
2021/06/27 03:22:47;;;;;;;3.80;3.50;;;25.70;77.00;;;;;;6157551;23;20494;-95
2021/06/27 03:25:14;;;;;;;3.97;3.77;;;25.70;76.20;;;;;;6158245;23;20412;-92
2021/06/27 03:27:42;;;;;;;3.33;3.13;;;25.70;76.10;;;;;;6158285;23;20483;-94
2021/06/27 03:30:10;;;;;;;4.40;4.10;;;25.70;76.10;;;;;;6157820;23;20481;-95
2021/06/27 03:32:37;;;;;;;3.77;3.57;;;25.70;76.10;;;;;;6158035;23;20438;-93
2021/06/27 03:35:05;;;;;;;3.73;3.50;;;25.70;76.20;;;;;;6157704;23;20518;-94
2021/06/27 03:37:32;;;;;;;4.20;3.90;;;25.70;76.10;;;;;;6158384;23;20461;-94
2021/06/27 03:40:00;;;;;;;4.07;3.77;;;25.70;76.10;;;;;;6157719;23;20496;-94
2021/06/27 03:42:36;;;;;;;3.60;3.40;;;25.70;76.10;;;;;;6159175;23;20421;-93
2021/06/27 03:45:04;;;;;;;3.97;3.67;;;25.70;76.10;;;;;;6157819;23;20454;-94
2021/06/27 03:47:31;;;;;;;3.97;3.70;;;25.70;76.10;;;;;;6157415;23;20434;-95
2021/06/27 03:49:57;;;;;;;3.83;3.53;;;25.70;76.10;;;;;;6157265;23;20509;-95
2021/06/27 03:52:24;;;;;;;3.53;3.33;;;25.70;76.10;;;;;;6158125;23;20743;-95
2021/06/27 03:54:51;;;;;;;3.80;3.60;;;25.70;76.10;;;;;;6157907;23;20449;-94
2021/06/27 03:57:19;;;;;;;4.30;4.10;;;25.70;76.10;;;;;;6157675;23;20436;-95
2021/06/27 03:59:46;;;;;;;3.47;3.27;;;25.70;76.10;;;;;;6157777;23;20428;-94
2021/06/27 04:02:13;;;;;;;3.97;3.70;;;25.70;76.10;;;;;;6158053;23;20435;-95
2021/06/27 04:04:40;;;;;;;3.27;3.07;;;25.70;76.10;;;;;;6157952;23;20413;-95
2021/06/27 04:07:06;;;;;;;3.50;3.30;;;25.70;76.10;;;;;;6157183;23;20799;-94
2021/06/27 04:09:33;;;;;;;4.10;3.80;;;25.70;76.10;;;;;;6157871;23;20729;-93
2021/06/27 04:12:00;;;;;;;3.50;3.30;;;25.70;76.10;;;;;;6158712;23;20431;-94
2021/06/27 04:14:28;;;;;;;3.60;3.30;;;25.70;76.10;;;;;;6157796;23;20482;-94
2021/06/27 04:16:55;;;;;;;3.80;3.50;;;25.70;76.10;;;;;;6157276;23;20407;-94
2021/06/27 04:19:22;;;;;;;2.87;2.67;;;25.70;76.10;;;;;;6157954;23;20431;-95
2021/06/27 04:21:49;;;;;;;3.53;3.30;;;25.70;76.10;;;;;;6158567;23;20506;-95
2021/06/27 04:24:16;;;;;;;3.77;3.50;;;25.70;76.10;;;;;;6157678;23;20399;-95
2021/06/27 04:26:43;;;;;;;4.00;3.70;;;25.70;76.10;;;;;;6158532;23;20494;-95
2021/06/27 04:29:12;;;;;;;3.77;3.57;;;25.70;76.00;;;;;;6158797;23;20414;-95
2021/06/27 04:31:42;;;;;;;3.43;3.23;;;25.70;76.10;;;;;;6157284;23;20455;-95
2021/06/27 04:34:09;;;;;;;3.77;3.53;;;25.70;76.00;;;;;;6157716;23;20734;-94
2021/06/27 04:36:35;;;;;;;3.73;3.53;;;25.70;76.10;;;;;;6156582;23;20533;-93
2021/06/27 04:39:02;;;;;;;3.60;3.40;;;25.70;76.00;;;;;;6156998;23;20414;-95
2021/06/27 04:41:29;;;;;;;3.30;3.10;;;25.70;76.10;;;;;;6157674;23;20403;-96
2021/06/27 04:43:56;;;;;;;3.00;2.80;;;25.70;76.10;;;;;;6156953;23;20410;-95
2021/06/27 04:46:23;;;;;;;3.40;3.20;;;25.70;76.10;;;;;;6157937;23;20493;-95
2021/06/27 04:48:51;;;;;;;3.20;3.00;;;25.70;76.10;;;;;;6157508;23;20413;-96
2021/06/27 04:51:18;;;;;;;3.80;3.60;;;25.70;76.20;;;;;;6157938;23;20536;-93
2021/06/27 04:53:46;;;;;;;3.30;3.10;;;25.70;76.10;;;;;;6158053;23;20411;-96
2021/06/27 04:56:12;;;;;;;3.33;3.13;;;25.70;76.10;;;;;;6157669;23;20719;-95
2021/06/27 04:58:39;;;;;;;3.23;3.03;;;25.70;76.10;;;;;;6156832;23;20504;-94
2021/06/27 05:01:06;;;;;;;2.97;2.77;;;25.70;76.10;;;;;;6157704;23;20502;-95
2021/06/27 05:03:33;;;;;;;2.87;2.67;;;25.70;76.10;;;;;;6157828;23;20435;-95
2021/06/27 05:06:01;;;;;;;3.37;3.17;;;25.70;76.10;;;;;;6157407;23;20426;-95
2021/06/27 05:08:28;;;;;;;3.37;3.17;;;25.70;76.10;;;;;;6156860;23;20442;-94
2021/06/27 05:10:55;;;;;;;3.00;2.80;;;25.70;76.10;;;;;;6157595;23;20451;-95
2021/06/27 05:13:22;;;;;;;3.40;3.20;;;25.70;76.20;;;;;;6157550;23;20975;-95
2021/06/27 05:15:49;;;;;;;3.90;3.70;;;25.70;76.20;;;;;;6171295;23;20421;-91
2021/06/27 05:18:16;;;;;;;3.43;3.23;;;25.70;76.20;;;;;;6184019;23;20407;-92
2021/06/27 05:20:43;;;;;;;3.30;3.10;;;25.70;76.20;;;;;;6176225;23;20403;-96
2021/06/27 05:23:11;;;;;;;3.27;3.07;;;25.70;76.20;;;;;;6168895;23;20427;-95
2021/06/27 05:25:37;;;;;;;3.47;3.27;;;25.80;76.20;;;;;;6160703;23;20488;-95
2021/06/27 05:28:05;;;;;;;3.53;3.33;;;25.70;76.20;;;;;;6159608;23;20776;-95
2021/06/27 05:30:33;;;;;;;3.47;3.27;;;25.70;76.10;;;;;;6157367;23;20449;-94
2021/06/27 05:33:00;;;;;;;3.20;3.00;;;25.80;76.30;;;;;;6156986;23;20767;-95
2021/06/27 05:35:27;;;;;;;3.27;3.07;;;25.70;76.10;;;;;;6157504;23;20441;-96
2021/06/27 05:37:53;;;;;;;3.50;3.30;;;25.70;76.10;;;;;;6156998;23;20424;-96
2021/06/27 05:40:22;;;;;;;3.50;3.30;;;25.70;76.10;;;;;;6157530;23;20419;-94
2021/06/27 05:42:49;;;;;;;3.17;2.97;;;25.70;76.10;;;;;;6158018;23;20421;-95
2021/06/27 05:45:15;;;;;;;3.60;3.40;;;25.80;76.20;;;;;;6157829;23;20421;-95
2021/06/27 05:47:42;;;;;;;3.80;3.60;;;25.80;76.20;;;;;;6157000;23;20414;-95
2021/06/27 05:50:10;;;;;;;3.20;3.00;;;25.70;76.10;;;;;;6157033;23;20451;-94
2021/06/27 05:52:37;;;;;;;3.43;3.23;;;25.70;76.10;;;;;;6157311;23;20450;-94
2021/06/27 05:55:05;;;;;;;2.83;2.63;;;25.70;76.10;;;;;;6157421;23;20463;-95
2021/06/27 05:57:33;;;;;;;3.00;2.80;;;25.80;76.10;;;;;;6158702;23;20415;-96
2021/06/27 06:00:00;;;;;;;2.90;2.70;;;25.80;76.10;;;;;;6158516;23;20434;-95
2021/06/27 06:02:26;;;;;;;3.40;3.20;;;25.80;76.10;;;;;;6158534;23;20400;-94
2021/06/27 06:04:53;;;;;;;3.27;3.07;;;25.70;76.00;;;;;;6158689;23;20510;-95
2021/06/27 06:07:20;;;;;;;3.30;3.10;;;25.70;76.00;;;;;;6158503;23;20499;-95
2021/06/27 06:09:47;;;;;;;3.20;3.00;;;25.80;76.10;;;;;;6158034;23;20443;-95
2021/06/27 06:12:14;;;;;;;3.33;3.13;;;25.70;76.00;;;;;;6160012;23;20454;-92
2021/06/27 06:14:42;;;;;;;3.30;3.10;;;25.80;76.00;;;;;;6162016;23;20414;-93
2021/06/27 06:17:09;;;;;;;3.20;3.00;;;25.80;76.00;;;;;;6159315;23;20411;-95
2021/06/27 06:19:37;;;;;;;3.00;2.80;;;25.80;76.10;;;;;;6159238;23;20408;-93
2021/06/27 06:22:04;;;;;;;2.93;2.80;;;25.80;76.00;;;;;;6158632;23;20429;-95
2021/06/27 06:24:31;;;;;;;3.03;2.83;;;25.80;76.10;;;;;;6158811;23;20416;-96
2021/06/27 06:26:58;;;;;;;2.83;2.67;;;25.80;76.10;;;;;;6158710;23;20408;-95
2021/06/27 06:29:25;;;;;;;2.80;2.70;;;25.80;76.00;;;;;;6159213;23;20434;-93
2021/06/27 06:31:53;;;;;;;3.00;2.80;;;25.80;76.10;;;;;;6165457;23;20507;-93
2021/06/27 06:34:20;;;;;;;3.33;3.13;;;25.90;76.10;;;;;;6179425;23;20592;-95
2021/06/27 06:36:48;;;;;;;3.40;3.20;;;25.80;76.00;;;;;;6170811;23;20490;-96
2021/06/27 06:39:15;;;;;;;2.70;2.60;;;25.80;76.00;;;;;;6160263;23;20442;-96
2021/06/27 06:41:41;;;;;;;2.97;2.77;;;25.80;76.10;;;;;;6158691;23;20420;-94
2021/06/27 06:44:08;;;;;;;3.03;2.83;;;25.80;76.10;;;;;;6158766;23;20420;-96
2021/06/27 06:46:35;;;;;;;3.10;2.90;;;25.80;76.10;;;;;;6158065;23;20921;-96
2021/06/27 06:49:03;;;;;;;2.93;2.73;;;25.80;76.10;;;;;;6166212;23;20505;-96
2021/06/27 06:51:30;;;;;;;3.07;2.87;;;25.80;76.00;;;;;;6158946;23;20448;-95
2021/06/27 06:53:57;;;;;;;3.40;3.10;;;25.80;76.10;;;;;;6159395;23;20406;-95
2021/06/27 06:56:24;;;;;;;2.73;2.57;;;25.80;76.00;;;;;;6158820;23;20422;-91
2021/06/27 06:58:55;;;;;;;2.70;2.50;;;25.80;76.00;;;;;;6179455;23;20406;-93
2021/06/27 07:01:22;;;;;;;2.87;2.67;;;25.80;75.90;;;;;;6166556;23;20420;-91
2021/06/27 07:03:49;;;;;;;3.97;3.70;;;25.80;75.90;;;;;;6160591;23;20802;-96
2021/06/27 07:06:25;;;;;;;3.67;3.47;;;25.80;76.30;;;;;;6169304;23;20493;-95
2021/06/27 07:08:52;;;;;;;3.07;2.87;;;25.80;76.30;;;;;;6164088;23;20421;-95
2021/06/27 07:11:18;;;;;;;2.90;2.70;;;25.80;76.30;;;;;;6158187;23;21005;-95
2021/06/27 07:13:45;;;;;;;3.13;2.93;;;25.80;76.20;;;;;;6158736;23;20403;-94
2021/06/27 07:16:12;;;;;;;2.50;2.40;;;25.80;76.30;;;;;;6171916;23;20797;-96
2021/06/27 07:18:39;;;;;;;2.73;2.57;;;25.80;76.10;;;;;;6158545;23;20410;-95
2021/06/27 07:21:06;;;;;;;3.30;3.10;;;25.80;76.10;;;;;;6157339;23;20465;-89
2021/06/27 07:23:34;;;;;;;2.50;2.30;;;25.80;76.10;;;;;;6166460;23;20510;-93
2021/06/27 07:26:00;;;;;;;3.20;3.00;;;25.80;76.00;;;;;;6157993;23;20486;-94
2021/06/27 07:28:27;;;;;;;3.90;3.60;;;25.80;75.90;;;;;;6157637;23;20422;-93
2021/06/27 07:30:55;;;;;;;3.80;3.57;;;25.80;76.00;;;;;;6168203;23;20452;-94
2021/06/27 07:33:22;;;;;;;3.33;3.13;;;25.80;76.00;;;;;;6157991;23;20812;-95
2021/06/27 07:35:49;;;;;;;3.70;3.47;;;25.90;76.10;;;;;;6158104;23;20772;-92
2021/06/27 07:38:16;;;;;;;3.80;3.60;;;25.90;76.00;;;;;;6158731;23;20466;-96
2021/06/27 07:40:44;;;;;;;3.60;3.40;;;25.80;76.00;;;;;;6158226;23;20760;-92
2021/06/27 07:43:11;;;;;;;4.00;3.70;;;25.80;76.20;;;;;;6157524;23;20497;-96
2021/06/27 07:45:38;;;;;;;4.37;4.07;;;25.80;76.00;;;;;;6157474;23;20485;-95
2021/06/27 07:48:05;;;;;;;3.80;3.50;;;25.80;75.90;;;;;;6157831;23;20425;-96
2021/06/27 07:50:32;;;;;;;4.80;3.90;;;25.80;75.90;;;;;;6157837;23;20406;-94
2021/06/27 07:52:59;;;;;;;3.70;3.50;;;25.80;76.00;;;;;;6157691;23;20753;-96
2021/06/27 07:55:27;;;;;;;3.93;3.63;;;25.80;75.90;;;;;;6159231;23;20901;-96
2021/06/27 07:57:55;;;;;;;4.00;3.80;;;25.80;76.80;;;;;;6158910;23;20734;-96
2021/06/27 08:00:23;;;;;;;4.20;3.90;;;25.90;76.10;;;;;;6158400;23;20408;-95
2021/06/27 08:02:49;;;;;;;4.13;3.83;;;25.80;76.00;;;;;;6158083;23;20486;-95
2021/06/27 08:05:16;;;;;;;3.77;3.47;;;25.80;76.90;;;;;;6158695;23;20518;-96
2021/06/27 08:07:43;;;;;;;5.00;3.53;;;25.90;76.10;;;;;;6158373;23;20883;-95
2021/06/27 08:10:11;;;;;;;4.10;3.30;;;25.80;76.00;;;;;;6157509;23;20906;-96
2021/06/27 08:12:39;;;;;;;4.20;3.83;;;25.80;76.00;;;;;;6158023;23;20447;-95
2021/06/27 08:15:17;;;;;;;3.50;3.20;;;25.80;76.00;;;;;;6160009;23;20429;-95
2021/06/27 08:17:45;;;;;;;3.97;3.67;;;25.80;76.00;;;;;;6161892;23;20397;-94
2021/06/27 08:20:13;;;;;;;4.23;3.93;;;25.80;76.00;;;;;;6157721;23;20406;-95
2021/06/27 08:22:40;;;;;;;3.80;3.50;;;25.80;76.00;;;;;;6157303;23;20413;-94
2021/06/27 08:25:08;;;;;;;5.80;3.70;;;25.80;76.10;;;;;;6157365;23;20404;-95
2021/06/27 08:27:35;;;;;;;3.13;2.93;;;25.80;76.00;;;;;;6157400;23;20889;-96
2021/06/27 08:30:04;;;;;;;3.70;3.43;;;25.90;76.10;;;;;;6157792;23;20411;-96
2021/06/27 08:32:32;;;;;;;3.77;3.37;;;25.80;76.10;;;;;;6158597;23;20740;-96
2021/06/27 08:34:59;;;;;;;3.60;3.30;;;25.80;76.00;;;;;;6157483;23;20429;-96
2021/06/27 08:37:25;;;;;;;3.63;3.43;;;25.80;76.10;;;;;;6157975;23;20406;-96
2021/06/27 08:39:53;;;;;;;3.43;3.13;;;25.80;76.20;;;;;;6158438;23;20411;-96
2021/06/27 08:42:21;;;;;;;3.40;3.20;;;25.90;76.30;;;;;;6157571;23;20414;-95
2021/06/27 08:44:49;;;;;;;3.57;3.37;;;25.80;76.20;;;;;;6157884;23;20963;-96
2021/06/27 08:47:16;;;;;;;3.43;3.23;;;25.90;76.30;;;;;;6157729;23;20403;-96
2021/06/27 08:49:48;;;;;;;3.93;3.57;;;25.80;76.20;;;;;;6157696;23;20410;-96
2021/06/27 08:52:17;;;;;;;4.10;3.77;;;25.80;77.20;;;;;;6158395;23;20449;-96
2021/06/27 08:54:44;;;;;;;4.10;3.70;;;25.80;76.50;;;;;;6161635;23;20400;-96
2021/06/27 08:57:15;;;;;;;4.00;3.70;;;25.80;76.60;;;;;;6158517;23;20407;-96
2021/06/27 08:59:42;;;;;;;3.97;3.77;;;25.90;76.70;;;;;;6156487;23;20475;-92
2021/06/27 09:02:10;;;;;;;4.17;3.87;;;25.80;76.50;;;;;;6156390;23;20414;-92
2021/06/27 09:04:38;;;;;;;4.07;3.77;;;25.80;76.40;;;;;;6156362;23;20510;-93
2021/06/27 09:07:32;;;;;;;5.47;4.23;;;25.80;76.40;;;;;;6157183;23;20493;-96
2021/06/27 09:10:04;;;;;;;4.63;3.83;;;25.80;76.30;;;;;;6156973;23;20411;-92
2021/06/27 09:12:46;;;;;;;3.70;3.40;;;25.80;76.50;;;;;;6156788;23;20933;-90
2021/06/27 09:15:14;;;;;;;4.20;3.90;;;25.80;76.40;;;;;;6156474;23;20391;-92
2021/06/27 09:17:42;;;;;;;3.47;3.17;;;25.80;76.40;;;;;;6156124;23;20420;-92
2021/06/27 09:20:11;;;;;;;3.50;3.20;;;25.80;76.40;;;;;;6156650;23;20902;-90
2021/06/27 09:22:40;;;;;;;4.10;3.80;;;25.80;76.40;;;;;;6156053;23;20766;-90
2021/06/27 09:25:18;;;;;;;3.47;3.23;;;25.80;76.60;;;;;;6156564;23;20402;-93
2021/06/27 09:27:45;;;;;;;3.30;3.03;;;25.80;76.50;;;;;;6157545;23;20796;-92
2021/06/27 09:30:15;;;;;;;3.90;3.60;;;25.80;76.50;;;;;;6157420;23;20502;-93
2021/06/27 09:32:52;;;;;;;3.77;3.47;;;25.80;76.40;;;;;;6158871;23;20534;-94
2021/06/27 09:35:38;;;;;;;3.90;3.60;;;25.80;76.40;;;;;;6158474;23;20525;-93
2021/06/27 09:41:27;;;;;;;4.23;4.03;;;25.80;76.50;;;;;;6158875;23;20858;-92
2021/06/27 09:43:56;;;;;;;4.83;3.10;;;25.80;76.60;;;;;;6171811;23;20450;-91
2021/06/27 09:46:32;;;;;;;3.70;3.43;;;25.80;76.70;;;;;;6165658;23;20390;-92
2021/06/27 09:49:02;;;;;;;3.73;3.50;;;25.80;76.70;;;;;;6160514;23;20411;-91
2021/06/27 09:51:31;;;;;;;4.00;3.80;;;25.80;76.70;;;;;;6158161;23;20407;-94
2021/06/27 09:53:58;;;;;;;3.70;3.50;;;25.80;76.70;;;;;;6158207;23;20502;-93
2021/06/27 09:56:28;;;;;;;6.03;3.67;;;25.80;76.80;;;;;;6158730;23;20453;-94
2021/06/27 09:59:00;;;;;;;3.70;3.40;;;25.80;76.90;;;;;;6185157;23;20418;-91
2021/06/27 10:01:28;;;;;;;3.30;3.10;;;25.80;76.80;;;;;;6185405;23;20466;-90
2021/06/27 10:03:56;;;;;;;4.77;3.73;;;25.80;76.90;;;;;;6185344;23;20402;-91
2021/06/27 10:06:25;;;;;;;4.00;3.60;;;25.70;76.80;;;;;;6171474;23;20418;-91
2021/06/27 10:08:53;;;;;;;4.23;3.40;;;25.80;76.90;;;;;;6160758;23;20508;-92
2021/06/27 10:11:21;;;;;;;3.77;3.47;;;25.80;76.90;;;;;;6160994;23;20502;-92
2021/06/27 10:13:51;;;;;;;3.33;3.13;;;25.80;76.90;;;;;;6159997;23;20414;-93
2021/06/27 10:16:27;;;;;;;3.90;3.70;;;25.80;77.00;;;;;;6160488;23;20409;-92
2021/06/27 10:18:54;;;;;;;4.20;3.90;;;25.80;77.00;;;;;;6161822;23;20406;-92
2021/06/27 10:21:21;;;;;;;3.40;3.20;;;25.80;76.80;;;;;;6162427;23;20427;-92
2021/06/27 10:23:49;;;;;;;3.77;3.57;;;25.80;76.90;;;;;;6160807;23;20423;-93
2021/06/27 10:26:18;;;;;;;4.13;3.70;;;25.80;76.90;;;;;;6158416;23;20494;-93
2021/06/27 10:28:47;;;;;;;4.00;3.70;;;25.80;76.90;;;;;;6158074;23;20417;-93
2021/06/27 10:31:17;;;;;;;3.80;3.60;;;25.80;76.90;;;;;;6157810;23;20936;-94
2021/06/27 10:33:46;;;;;;;3.50;3.30;;;25.90;77.10;;;;;;6157820;23;20489;-93
2021/06/27 10:41:56;;;;;;;3.97;3.60;;;25.80;77.00;;;;;;6168177;23;20465;-93
2021/06/27 10:44:25;;;;;;;3.10;2.90;;;25.80;76.90;;;;;;6158314;23;20435;-93
2021/06/27 10:47:30;;;;;;;4.13;3.83;;;25.80;77.00;;;;;;6161952;23;20425;-92
2021/06/27 10:49:56;;;;;;;3.90;3.70;;;25.90;77.00;;;;;;6165633;23;20396;-94
2021/06/27 10:52:23;;;;;;;3.57;3.37;;;25.80;77.10;;;;;;6158079;23;20475;-94
2021/06/27 10:55:16;;;;;;;3.80;3.60;;;25.80;77.10;;;;;;6158064;23;20994;-93
2021/06/27 10:57:57;;;;;;;3.50;3.30;;;25.90;77.10;;;;;;6130827;23;20418;-93
2021/06/27 11:00:25;;;;;;;3.63;3.37;;;25.90;77.10;;;;;;6163542;23;20427;-93
2021/06/27 11:02:53;;;;;;;3.30;3.00;;;25.80;77.00;;;;;;6158038;23;20415;-92
2021/06/27 11:05:42;;;;;;;5.60;3.03;;;25.90;77.10;;;;;;6157656;23;20499;-92
2021/06/27 11:08:40;;;;;;;3.27;3.07;;;25.90;77.00;;;;;;6170027;23;20400;-91
2021/06/27 11:11:19;;;;;;;3.90;3.60;;;25.90;77.10;;;;;;6157616;23;20399;-93
2021/06/27 11:14:15;;;;;;;3.77;3.50;;;25.90;77.20;;;;;;6157800;23;20435;-93
2021/06/27 11:16:59;;;;;;;3.50;3.30;;;25.90;77.10;;;;;;6158611;23;20709;-93
2021/06/27 11:19:29;;;;;;;4.00;3.80;;;25.90;77.10;;;;;;6157278;23;20468;-93
2021/06/27 11:22:20;;;;;;;3.90;3.60;;;25.90;77.20;;;;;;6146416;23;20392;-93
2021/06/27 11:24:48;;;;;;;3.30;3.10;;;25.90;77.10;;;;;;6157715;23;20426;-92
2021/06/27 11:27:29;;;;;;;3.70;3.50;;;25.80;78.00;;;;;;6158547;23;20426;-94
2021/06/27 11:29:56;;;;;;;3.50;3.20;;;25.90;77.20;;;;;;6157896;23;20399;-93
2021/06/27 11:32:50;;;;;;;3.53;3.33;;;25.90;77.30;;;;;;6158174;23;20537;-93
2021/06/27 11:35:45;;;;;;;3.23;3.03;;;25.90;77.10;;;;;;6157696;23;20811;-93
2021/06/27 11:38:38;;;;;;;2.90;2.70;;;25.90;77.10;;;;;;6157719;23;20396;-92
2021/06/27 11:41:07;;;;;;;3.20;2.97;;;25.90;77.20;;;;;;6157933;23;20402;-93
2021/06/27 11:43:55;;;;;;;3.67;3.47;;;25.80;77.30;;;;;;6158418;23;20715;-93
2021/06/27 11:46:33;;;;;;;3.40;3.20;;;25.90;77.20;;;;;;6158738;23;20400;-94
2021/06/27 11:49:03;;;;;;;4.13;3.70;;;25.90;78.20;;;;;;6157866;23;20414;-94
2021/06/27 11:51:43;;;;;;;3.60;3.40;;;25.90;77.40;;;;;;6157454;23;20482;-94
2021/06/27 11:54:12;;;;;;;3.70;3.50;;;25.90;77.30;;;;;;6157960;23;20522;-94
2021/06/27 11:56:59;;;;;;;3.50;3.30;;;25.90;77.30;;;;;;6156910;23;20493;-94
2021/06/27 11:59:28;;;;;;;3.50;3.30;;;25.90;77.20;;;;;;6157666;23;20936;-94
2021/06/27 12:02:22;;;;;;;3.60;3.40;;;25.90;77.20;;;;;;6157215;23;20782;-93
2021/06/27 12:04:50;;;;;;;3.30;3.10;;;25.90;77.20;;;;;;6130619;23;20510;-93
2021/06/27 12:07:29;;;;;;;3.07;2.87;;;25.90;77.30;;;;;;6157181;23;20443;-93
2021/06/27 12:09:58;;;;;;;3.33;3.13;;;25.90;77.10;;;;;;6157832;23;20718;-93
2021/06/27 12:12:39;;;;;;;3.70;3.50;;;25.90;77.30;;;;;;6157991;23;20475;-94
2021/06/27 12:15:10;;;;;;;3.57;3.37;;;25.90;77.30;;;;;;6157398;23;20407;-94
2021/06/27 12:17:36;;;;;;;3.70;3.50;;;25.90;77.40;;;;;;6157267;23;20776;-93
2021/06/27 12:20:05;;;;;;;3.27;3.07;;;25.90;77.30;;;;;;6157135;23;20805;-94
2021/06/27 12:22:47;;;;;;;3.20;3.00;;;25.90;77.30;;;;;;6157270;23;20400;-94
2021/06/27 12:25:14;;;;;;;3.17;2.97;;;25.90;77.30;;;;;;6157186;23;20396;-94
2021/06/27 12:27:48;;;;;;;3.10;2.90;;;25.90;77.30;;;;;;6186627;23;20894;-93
2021/06/27 12:30:16;;;;;;;3.50;3.30;;;26.00;77.20;;;;;;6187203;23;20421;-95
2021/06/27 12:33:01;;;;;;;3.60;3.40;;;25.90;77.10;;;;;;6186642;23;20472;-94
2021/06/27 12:35:30;;;;;;;3.10;2.90;;;25.90;77.10;;;;;;6186215;23;20516;-93
2021/06/27 12:37:59;;;;;;;3.40;3.20;;;25.90;77.30;;;;;;6186540;23;20398;-93
2021/06/27 12:40:26;;;;;;;3.33;3.13;;;25.90;77.30;;;;;;6186601;23;20742;-93
2021/06/27 12:42:53;;;;;;;2.90;2.70;;;25.90;77.30;;;;;;6186619;23;20432;-93
2021/06/27 12:45:21;;;;;;;3.90;3.60;;;25.90;78.00;;;;;;6186818;23;20406;-93
2021/06/27 12:47:48;;;;;;;3.33;3.13;;;26.00;78.10;;;;;;6186379;23;20429;-93
2021/06/27 12:50:16;;;;;;;3.37;3.17;;;26.00;77.30;;;;;;6186580;23;20423;-93
2021/06/27 12:52:45;;;;;;;3.20;3.00;;;26.00;77.30;;;;;;6186557;23;20455;-94
2021/06/27 12:55:16;;;;;;;3.47;3.27;;;26.00;77.30;;;;;;6186542;23;20406;-94
2021/06/27 12:57:55;;;;;;;3.03;2.83;;;26.00;77.30;;;;;;6186446;23;20403;-93
2021/06/27 13:00:21;;;;;;;3.40;3.20;;;26.00;77.40;;;;;;6186531;23;20477;-93
2021/06/27 13:02:49;;;;;;;3.07;2.87;;;26.00;77.30;;;;;;6186899;23;20411;-93
2021/06/27 13:05:17;;;;;;;3.20;3.00;;;26.10;77.40;;;;;;6187839;23;20433;-94
2021/06/27 13:07:47;;;;;;;3.17;2.97;;;26.00;77.30;;;;;;6188172;23;20487;-93